• Join FlightAware (Why Join?)
  • Login
  • US Flag 
08:50PM EDT


 

Airport Tracker/Info


-or-


 

Live Flight TrackerFlight Track Log ✈ AWE1992 ✈ 08-May-2012 ✈ KCLT - KPVD

Flight Track Log - Related Links

Times and Time Zones

All times are in EDT time to prevent confusion due to time zone crossing. See the AWE1992 flight status page for this flight to view local times or setup timezone preferences in your user account.

Time Position Orientation Groundspeed Altitude Reporting Facility
EDT Latitude Longitude Course Direction KTS MPH feet Rate Location/Type
04:26PM 35.1950 -80.9356 106° East 166 191 1,600  Level Atlanta Center
04:30PM 35.1267 -80.6436 34° Northeast 305 351 6,400 1,500 Climbing Atlanta Center
04:31PM 35.1919 -80.5900 30° Northeast 301 346 9,400 2,400 Climbing Atlanta Center
04:32PM 35.2678 -80.5358 39° Northeast 299 344 11,300 1,980 Climbing Atlanta Center
04:33PM 35.3347 -80.4694 69° East 322 371 13,400 2,400 Climbing Atlanta Center
04:34PM 35.3708 -80.3508 71° East 352 405 16,200 2,400 Climbing Atlanta Center
04:36PM 35.4358 -80.1222 72° East 410 472 20,000 1,980 Climbing Washington Center
04:37PM 35.4700 -79.9964 72° East 402 463 21,700 1,860 Climbing Washington Center
04:38PM 35.5039 -79.8656 73° East 396 456 23,800 1,440 Climbing Washington Center
04:39PM 35.5403 -79.7194 71° East 416 479 24,700 1,200 Climbing Washington Center
04:40PM 35.5808 -79.5711 72° East 444 511 26,300 1,440 Climbing Washington Center
04:41PM 35.6189 -79.4247 51° Northeast 458 527 27,600 1,320 Climbing Washington Center
04:42PM 35.6914 -79.3131 36° Northeast 449 517 29,000 1,500 Climbing Washington Center
04:43PM 35.7944 -79.2206 39° Northeast 449 517 30,700 960 Climbing Washington Center
04:44PM 35.8933 -79.1200 39° Northeast 449 517 31,000 120 Climbing Washington Center
04:45PM 35.9922 -79.0217 40° Northeast 454 522 31,000  Level Washington Center
04:46PM 36.0911 -78.9206 39° Northeast 459 528 31,000  Level Washington Center
04:47PM 36.2003 -78.8119 38° Northeast 459 528 31,000  Level Washington Center
04:48PM 36.2989 -78.7156 39° Northeast 454 522 31,000  Level Washington Center
04:49PM 36.3975 -78.6164 38° Northeast 454 522 31,000  Level Washington Center
04:50PM 36.4981 -78.5169 40° Northeast 454 522 31,000  Level Washington Center
04:51PM 36.5942 -78.4169 40° Northeast 454 522 31,000  Level Washington Center
04:52PM 36.6906 -78.3169 39° Northeast 446 513 31,000  Level Washington Center
04:53PM 36.7867 -78.2192 39° Northeast 441 507 31,000  Level Washington Center
04:54PM 36.8825 -78.1211 39° Northeast 441 507 31,000  Level Washington Center
04:55PM 36.9786 -78.0228 39° Northeast 441 507 31,000  Level Washington Center
04:56PM 37.0742 -77.9244 40° Northeast 441 507 31,000  Level Washington Center
04:57PM 37.1700 -77.8231 39° Northeast 441 507 31,000  Level Washington Center
04:58PM 37.2658 -77.7239 39° Northeast 441 507 31,000  Level Washington Center
04:59PM 37.3633 -77.6247 40° Northeast 441 507 31,000  Level Washington Center
05:00PM 37.4589 -77.5228 39° Northeast 441 507 31,000  Level Washington Center
05:01PM 37.5567 -77.4231 40° Northeast 441 507 31,000  Level Washington Center
05:02PM 37.6519 -77.3203 40° Northeast 441 507 31,000  Level Washington Center
05:03PM 37.7472 -77.2200 40° Northeast 441 507 31,000  Level Washington Center
05:04PM 37.8425 -77.1169 40° Northeast 441 507 31,000  Level Washington Center
05:05PM 37.9394 -77.0136 40° Northeast 441 507 31,000  Level Washington Center
05:06PM 38.0344 -76.9125 41° Northeast 441 507 31,000  Level Washington Center
05:07PM 38.1294 -76.8086 40° Northeast 441 507 31,000  Level Washington Center
05:08PM 38.2286 -76.7019 40° Northeast 441 507 31,000  Level Washington Center
05:09PM 38.3253 -76.6000 41° Northeast 441 507 31,000  Level Washington Center
05:10PM 38.4222 -76.4928 40° Northeast 446 513 31,000  Level Washington Center
05:11PM 38.5208 -76.3878 40° Northeast 451 519 31,000  Level Washington Center
05:12PM 38.6175 -76.2825 40° Northeast 451 519 31,000  Level Washington Center
05:13PM 38.7139 -76.1797 40° Northeast 451 519 31,000  Level Washington Center
05:14PM 38.8019 -76.0844 43° Northeast 451 519 31,000  Level Washington Center
05:15PM 38.8939 -75.9756 39° Northeast 451 519 31,000  Level Washington Center
05:16PM 38.9922 -75.8719 41° Northeast 451 519 31,000  Level Washington Center
05:17PM 39.0883 -75.7628 39° Northeast 451 519 31,000  Level Washington Center
05:18PM 39.1842 -75.6611 40° Northeast 451 519 31,000  Level Washington Center
05:19PM 39.2822 -75.5539 42° Northeast 451 519 31,000  Level Washington Center
05:20PM 39.3758 -75.4439 41° Northeast 451 519 31,000  Level Washington Center
05:21PM 39.4736 -75.3333 41° Northeast 457 526 31,000  Level Washington Center
05:22PM 39.5692 -75.2253 42° Northeast 457 526 31,000  Level Washington Center
05:23PM 39.6772 -75.1008 42° Northeast 457 526 31,000  Level Washington Center
05:24PM 39.8192 -74.9358 41° Northeast 453 521 31,000  Level New York Center
05:25PM 39.9275 -74.8150 42° Northeast 459 528 31,000  Level New York Center
05:26PM 40.0122 -74.7142 60° Northeast 459 528 31,000  Level New York Center
05:27PM 40.0844 -74.5475 61° Northeast 469 540 31,000  Level New York Center
05:28PM 40.1431 -74.4094 64° Northeast 468 539 31,000 -120 Level New York Center
05:31PM 40.2908 -74.0153 63° Northeast 467 537 30,600 -420 Descending Boston Center
05:32PM 40.3514 -73.8561 64° Northeast 467 537 29,600 -1,020 Descending Boston Center
05:33PM 40.4117 -73.6964 62° Northeast 467 537 28,600 -1,320 Descending Boston Center
05:34PM 40.4778 -73.5314 65° Northeast 482 555 27,000 -840 Descending Boston Center
05:35PM 40.5356 -73.3686 64° Northeast 488 562 27,000 -120 Level Boston Center
05:36PM 40.5953 -73.2053 63° Northeast 488 562 26,800 -480 Descending Boston Center
05:37PM 40.6567 -73.0447 65° Northeast 488 562 26,100 -900 Descending Boston Center
05:38PM 40.7156 -72.8808 65° Northeast 488 562 25,100 -960 Descending Boston Center
05:39PM 40.7683 -72.7306 64° Northeast 488 562 24,200 -960 Descending Boston Center
05:40PM 40.8269 -72.5689 64° Northeast 488 562 23,200 -1,920 Descending Boston Center
05:41PM 40.8853 -72.4100 65° Northeast 488 562 20,400 -2,940 Descending Boston Center
05:42PM 40.9394 -72.2561 66° East 472 543 17,400 -3,060 Descending Boston Center
05:42PM 40.9744 -72.1514 66° East 459 528 15,300 -3,000 Descending Boston Center
05:43PM 41.0322 -71.9806 46° Northeast 438 504 12,100 -2,160 Descending Boston Center
05:44PM 41.1069 -71.8781 31° Northeast 387 445 10,800 -1,080 Descending Boston Center
05:45PM 41.1919 -71.8111 30° Northeast 340 391 10,000 -1,140 Descending Boston Center
05:46PM 41.2686 -71.7525 34° Northeast 317 365 8,600 -1,680 Descending Boston Center
05:47PM 41.3453 -71.6825 33° Northeast 310 357 6,600 -1,740 Descending Boston Center
05:48PM 41.4158 -71.6208 41° Northeast 307 353 5,200 -840 Descending Boston Center
05:49PM 41.4819 -71.5450 40° Northeast 301 346 5,000 -120 Descending Boston Center
05:50PM 41.5439 -71.4750 40° Northeast 305 351 5,000  Level Boston Center
05:51PM 41.6036 -71.4072 40° Northeast 305 351 5,000 -240 Level Boston Center
05:53PM 41.6842 -71.3169 40° Northeast 305 351 4,600 -360 Descending Boston Center